Flight Track Log - Related Links

Times and Time Zones

All times are in EDT time to prevent confusion due to time zone crossing. See the JBU1329 flight status page for this flight to view local times or setup timezone preferences in your user account.

Time Position Orientation Groundspeed Altitude Reporting Facility
EDT Latitude Longitude Course Direction KTS MPH feet Rate Location/Type
Mon 09:22:57 AM 42.3500 -71.0167 240° Southwest 195 224 600  Level KA90
Mon 09:25:00 AM 42.3924 -70.7424 144° Southeast  Level FlightAware Approximate
Mon 09:25:19 AM 42.3267 -70.8422 100° East 231 266 5,900  Level Boston Center
Mon 09:26:00 AM 42.3020 -70.7171 172° South  Level FlightAware Approximate
Mon 09:26:18 AM 42.3086 -70.7417 104° East 260 299 9,200  Level Boston Center
Mon 09:27:00 AM 42.2388 -70.8084 228° Southwest  Level FlightAware Approximate
Mon 09:27:19 AM 42.2311 -70.7297 173° South 216 249 12,200  Level Boston Center
Mon 09:28:00 AM 42.1907 -70.9162 240° Southwest  Level FlightAware Approximate
Mon 09:28:18 AM 42.1908 -70.8261 241° Southwest 182 209 13,800  Level Boston Center
Mon 09:29:18 AM 42.1756 -70.9300 259° West 256 295 16,500 2,700 Climbing Boston Center
Mon 09:30:18 AM 42.1628 -71.0647 263° West 318 366 19,200 2,430 Climbing Boston Center
Mon 09:31:19 AM 42.1456 -71.1911 260° West 341 392 21,400 2,132 Climbing Boston Center
Mon 09:32:19 AM 42.1281 -71.3203 260° West 351 404 23,500 2,050 Climbing Boston Center
Mon 09:33:19 AM 42.1125 -71.4494 261° West 356 410 25,500 1,800 Climbing Boston Center
Mon 09:34:19 AM 42.0928 -71.5783 258° West 356 410 27,100 1,500 Climbing Boston Center
Mon 09:35:19 AM 42.0750 -71.7183 260° West 356 410 28,500 1,361 Climbing Boston Center
Mon 09:36:18 AM 42.0550 -71.8531 259° West 368 423 29,800 1,400 Climbing Boston Center
Mon 09:37:19 AM 42.0161 -71.9847 248° West 373 429 31,300 1,091 Climbing Boston Center
Mon 09:38:19 AM 41.9622 -72.1078 240° Southwest 373 429 32,000 353 Climbing Boston Center
Mon 09:39:18 AM 41.9250 -72.1889 238° Southwest 378 435 32,000  Level Boston Center
Mon 09:40:18 AM 41.8564 -72.3342 238° Southwest 383 441 32,000  Level Boston Center
Mon 09:41:19 AM 41.8003 -72.4594 239° Southwest 394 453 32,000  Level Boston Center
Mon 09:42:19 AM 41.7397 -72.5875 238° Southwest 399 459 32,000  Level Boston Center
Mon 09:43:19 AM 41.6831 -72.7181 240° Southwest 410 472 32,000  Level Boston Center
Mon 09:44:18 AM 41.6244 -72.8456 238° Southwest 410 472 32,000  Level Boston Center
Mon 09:45:18 AM 41.5656 -72.9728 238° Southwest 410 472 32,000  Level Boston Center
Mon 09:46:19 AM 41.5086 -73.0969 239° Southwest 404 465 32,000  Level Boston Center
Mon 09:48:37 AM 41.3656 -73.4056 238° Southwest 404 465 32,000  Level New York Center
Mon 09:49:39 AM 41.3064 -73.5331 238° Southwest 404 465 32,000  Level New York Center
Mon 09:50:36 AM 41.2408 -73.6572 235° Southwest 409 471 32,000  Level New York Center
Mon 09:51:37 AM 41.1672 -73.7753 230° Southwest 416 479 32,000  Level New York Center
Mon 09:52:37 AM 41.0975 -73.8933 232° Southwest 421 484 32,000  Level New York Center
Mon 09:53:38 AM 41.0297 -74.0086 232° Southwest 421 484 32,000 -50 Level New York Center
Mon 09:54:36 AM 40.9619 -74.1261 233° Southwest 410 472 31,900 -857 Descending New York Center
Mon 09:55:37 AM 40.8942 -74.2325 230° Southwest 410 472 30,300 -1,770 Descending New York Center
Mon 09:56:38 AM 40.8131 -74.3656 231° Southwest 417 480 28,300 -1,140 Descending New York Center
Mon 09:57:38 AM 40.7408 -74.4822 231° Southwest 422 486 28,000 -550 Descending New York Center
Mon 09:58:38 AM 40.6867 -74.6133 241° Southwest 411 473 27,200 -942 Descending New York Center
Mon 09:59:39 AM 40.6453 -74.7314 245° Southwest 399 459 26,100 -1,109 Descending New York Center
Mon 10:00:37 AM 40.5947 -74.8653 244° Southwest 388 447 25,000 -1,017 Descending New York Center
Mon 10:01:37 AM 40.5533 -74.9775 244° Southwest 388 447 24,100 -1,350 Descending New York Center
Mon 10:02:37 AM 40.4992 -75.0942 239° Southwest 382 440 22,300 -2,050 Descending New York Center
Mon 10:03:37 AM 40.4161 -75.1981 224° Southwest 377 434 20,000 -2,118 Descending New York Center
Mon 10:04:36 AM 40.3436 -75.2914 224° Southwest 370 426 18,100 -992 Descending New York Center
Mon 10:05:38 AM 40.2714 -75.3847 225° Southwest 370 426 18,000 -49 Descending New York Center
Mon 10:06:39 AM 40.1967 -75.4803 224° Southwest 377 434 18,000  Level New York Center
Mon 10:07:39 AM 40.1308 -75.5600 223° Southwest 377 434 18,000  Level New York Center
Mon 10:08:38 AM 40.0539 -75.6603 225° Southwest 368 423 18,000  Level New York Center
Mon 10:09:38 AM 39.9858 -75.7422 223° Southwest 368 423 18,000  Level New York Center
Mon 10:10:39 AM 39.9067 -75.8394 223° Southwest 368 423 18,000 -1,118 Level New York Center
Mon 10:12:19 AM 39.7833 -76.0000 225° Southwest 349 402 15,000 -1,950 Descending Potomac TRACON
Mon 10:13:19 AM 39.7167 -76.0833 224° Southwest 334 384 12,800 -1,500 Descending Potomac TRACON
Mon 10:14:19 AM 39.6667 -76.1667 232° Southwest 321 369 12,000 -950 Descending Potomac TRACON
Mon 10:15:19 AM 39.6000 -76.2333 218° Southwest 304 350 10,900 -1,339 Descending Potomac TRACON
Mon 10:16:20 AM 39.5333 -76.3000 218° Southwest 281 323 9,300 -1,571 Descending Potomac TRACON
Mon 10:17:25 AM 39.4667 -76.3667 218° Southwest 276 318 7,600 -1,667 Descending Potomac TRACON
Mon 10:18:26 AM 39.4000 -76.4167 210° Southwest 280 322 5,800 -1,537 Descending Potomac TRACON
Mon 10:19:26 AM 39.3333 -76.4333 191° South 271 312 4,500 -1,450 Descending Potomac TRACON
Mon 10:20:26 AM 39.2667 -76.4667 201° Southwest 268 308 2,900 -1,250 Descending Potomac TRACON
Mon 10:21:26 AM 39.2000 -76.5000 201° Southwest 252 290 2,000 -450 Descending Potomac TRACON
Mon 10:22:26 AM 39.1500 -76.5333 207° Southwest 198 228 2,000  Level Potomac TRACON

Login

Don't have an account? Register now (free) for customized features, flight alerts, and more!